sensor_id;sensor_type;location;lat;lon;timestamp;P1;durP1;ratioP1;P2;durP2;ratioP2
8232;SDS011;4157;48.074;9.952;2022-10-04T00:00:11;6.03;;;3.75;;
8232;SDS011;4157;48.074;9.952;2022-10-04T00:02:39;9.27;;;5.00;;
8232;SDS011;4157;48.074;9.952;2022-10-04T00:05:12;8.25;;;4.28;;
8232;SDS011;4157;48.074;9.952;2022-10-04T00:07:43;8.65;;;4.38;;
8232;SDS011;4157;48.074;9.952;2022-10-04T00:10:15;7.80;;;4.60;;
8232;SDS011;4157;48.074;9.952;2022-10-04T00:12:46;6.70;;;4.25;;
8232;SDS011;4157;48.074;9.952;2022-10-04T00:15:17;6.00;;;4.35;;
8232;SDS011;4157;48.074;9.952;2022-10-04T00:17:58;6.47;;;4.43;;
8232;SDS011;4157;48.074;9.952;2022-10-04T00:23:28;6.72;;;3.85;;
8232;SDS011;4157;48.074;9.952;2022-10-04T00:25:56;5.78;;;4.13;;
8232;SDS011;4157;48.074;9.952;2022-10-04T00:28:30;5.75;;;3.83;;
8232;SDS011;4157;48.074;9.952;2022-10-04T00:31:08;6.47;;;3.70;;
8232;SDS011;4157;48.074;9.952;2022-10-04T00:33:37;9.23;;;4.10;;
8232;SDS011;4157;48.074;9.952;2022-10-04T00:39:00;6.88;;;3.47;;
8232;SDS011;4157;48.074;9.952;2022-10-04T00:41:29;7.22;;;3.55;;
8232;SDS011;4157;48.074;9.952;2022-10-04T00:44:02;6.72;;;3.33;;
8232;SDS011;4157;48.074;9.952;2022-10-04T00:46:31;8.20;;;3.60;;
8232;SDS011;4157;48.074;9.952;2022-10-04T00:48:59;4.18;;;2.75;;
8232;SDS011;4157;48.074;9.952;2022-10-04T00:51:30;5.82;;;2.85;;
8232;SDS011;4157;48.074;9.952;2022-10-04T00:54:00;4.88;;;2.80;;
8232;SDS011;4157;48.074;9.952;2022-10-04T00:56:33;4.63;;;3.00;;
8232;SDS011;4157;48.074;9.952;2022-10-04T00:59:07;4.90;;;2.95;;
8232;SDS011;4157;48.074;9.952;2022-10-04T01:04:05;5.45;;;3.13;;
8232;SDS011;4157;48.074;9.952;2022-10-04T01:06:40;5.75;;;3.10;;
8232;SDS011;4157;48.074;9.952;2022-10-04T01:09:08;6.68;;;3.10;;
8232;SDS011;4157;48.074;9.952;2022-10-04T01:11:37;5.25;;;3.10;;
8232;SDS011;4157;48.074;9.952;2022-10-04T01:14:10;5.03;;;3.17;;
8232;SDS011;4157;48.074;9.952;2022-10-04T01:16:41;6.90;;;4.03;;
8232;SDS011;4157;48.074;9.952;2022-10-04T01:21:58;6.70;;;3.83;;
8232;SDS011;4157;48.074;9.952;2022-10-04T01:24:34;5.50;;;3.67;;
8232;SDS011;4157;48.074;9.952;2022-10-04T01:27:02;5.18;;;3.35;;
8232;SDS011;4157;48.074;9.952;2022-10-04T01:29:30;6.63;;;3.60;;
8232;SDS011;4157;48.074;9.952;2022-10-04T01:31:58;5.88;;;3.80;;
8232;SDS011;4157;48.074;9.952;2022-10-04T01:34:27;6.10;;;3.45;;
8232;SDS011;4157;48.074;9.952;2022-10-04T01:36:56;6.38;;;3.53;;
8232;SDS011;4157;48.074;9.952;2022-10-04T01:39:24;5.72;;;3.67;;
8232;SDS011;4157;48.074;9.952;2022-10-04T01:41:54;7.25;;;3.22;;
8232;SDS011;4157;48.074;9.952;2022-10-04T01:44:27;6.00;;;3.22;;
8232;SDS011;4157;48.074;9.952;2022-10-04T01:46:58;6.00;;;4.05;;
8232;SDS011;4157;48.074;9.952;2022-10-04T01:49:27;6.00;;;3.92;;
8232;SDS011;4157;48.074;9.952;2022-10-04T01:51:58;6.28;;;3.60;;
8232;SDS011;4157;48.074;9.952;2022-10-04T01:54:31;5.43;;;2.95;;
8232;SDS011;4157;48.074;9.952;2022-10-04T01:57:03;7.07;;;3.35;;
8232;SDS011;4157;48.074;9.952;2022-10-04T01:59:33;6.40;;;3.10;;
8232;SDS011;4157;48.074;9.952;2022-10-04T02:02:05;4.82;;;3.17;;
8232;SDS011;4157;48.074;9.952;2022-10-04T02:04:35;6.22;;;3.30;;
8232;SDS011;4157;48.074;9.952;2022-10-04T02:07:09;8.82;;;3.63;;
8232;SDS011;4157;48.074;9.952;2022-10-04T02:09:38;6.85;;;3.55;;
8232;SDS011;4157;48.074;9.952;2022-10-04T02:12:09;5.13;;;3.30;;
8232;SDS011;4157;48.074;9.952;2022-10-04T02:14:41;7.80;;;4.40;;
8232;SDS011;4157;48.074;9.952;2022-10-04T02:17:10;6.15;;;3.97;;
8232;SDS011;4157;48.074;9.952;2022-10-04T02:19:39;6.00;;;3.90;;
8232;SDS011;4157;48.074;9.952;2022-10-04T02:22:09;6.47;;;4.45;;
8232;SDS011;4157;48.074;9.952;2022-10-04T02:24:39;8.05;;;4.32;;
8232;SDS011;4157;48.074;9.952;2022-10-04T02:27:07;6.32;;;4.22;;
8232;SDS011;4157;48.074;9.952;2022-10-04T02:29:36;6.75;;;4.30;;
8232;SDS011;4157;48.074;9.952;2022-10-04T02:32:04;6.05;;;3.70;;
8232;SDS011;4157;48.074;9.952;2022-10-04T02:34:50;5.55;;;3.53;;
8232;SDS011;4157;48.074;9.952;2022-10-04T02:37:20;9.10;;;3.33;;
8232;SDS011;4157;48.074;9.952;2022-10-04T02:39:49;4.70;;;3.08;;
8232;SDS011;4157;48.074;9.952;2022-10-04T02:42:20;4.90;;;2.78;;
8232;SDS011;4157;48.074;9.952;2022-10-04T02:44:52;5.20;;;3.20;;
8232;SDS011;4157;48.074;9.952;2022-10-04T02:47:23;5.88;;;3.45;;
8232;SDS011;4157;48.074;9.952;2022-10-04T02:49:54;5.63;;;3.40;;
8232;SDS011;4157;48.074;9.952;2022-10-04T02:52:23;6.90;;;3.58;;
8232;SDS011;4157;48.074;9.952;2022-10-04T02:54:54;6.63;;;3.58;;
8232;SDS011;4157;48.074;9.952;2022-10-04T02:57:25;5.60;;;3.53;;
8232;SDS011;4157;48.074;9.952;2022-10-04T03:00:02;6.20;;;3.30;;
8232;SDS011;4157;48.074;9.952;2022-10-04T03:02:36;6.00;;;3.17;;
8232;SDS011;4157;48.074;9.952;2022-10-04T03:05:05;4.82;;;3.33;;
8232;SDS011;4157;48.074;9.952;2022-10-04T03:07:35;7.80;;;4.57;;
8232;SDS011;4157;48.074;9.952;2022-10-04T03:10:04;6.00;;;4.28;;
8232;SDS011;4157;48.074;9.952;2022-10-04T03:12:33;11.00;;;4.30;;
8232;SDS011;4157;48.074;9.952;2022-10-04T03:15:06;8.25;;;5.20;;
8232;SDS011;4157;48.074;9.952;2022-10-04T03:17:34;8.85;;;4.97;;
8232;SDS011;4157;48.074;9.952;2022-10-04T03:20:02;11.30;;;6.22;;
8232;SDS011;4157;48.074;9.952;2022-10-04T03:22:30;8.55;;;5.15;;
8232;SDS011;4157;48.074;9.952;2022-10-04T03:24:57;8.80;;;4.88;;
8232;SDS011;4157;48.074;9.952;2022-10-04T03:27:27;9.80;;;5.10;;
8232;SDS011;4157;48.074;9.952;2022-10-04T03:29:55;8.38;;;5.75;;
8232;SDS011;4157;48.074;9.952;2022-10-04T03:32:25;8.90;;;5.05;;
8232;SDS011;4157;48.074;9.952;2022-10-04T03:34:55;9.77;;;5.70;;
8232;SDS011;4157;48.074;9.952;2022-10-04T03:37:23;10.73;;;5.60;;
8232;SDS011;4157;48.074;9.952;2022-10-04T03:39:52;9.23;;;5.57;;
8232;SDS011;4157;48.074;9.952;2022-10-04T03:42:21;9.73;;;6.03;;
8232;SDS011;4157;48.074;9.952;2022-10-04T03:44:50;10.32;;;6.13;;
8232;SDS011;4157;48.074;9.952;2022-10-04T03:47:20;10.90;;;6.03;;
8232;SDS011;4157;48.074;9.952;2022-10-04T03:49:50;9.15;;;6.05;;
8232;SDS011;4157;48.074;9.952;2022-10-04T03:52:20;9.10;;;5.15;;
8232;SDS011;4157;48.074;9.952;2022-10-04T03:54:49;9.70;;;5.97;;
8232;SDS011;4157;48.074;9.952;2022-10-04T03:57:18;9.43;;;5.13;;
8232;SDS011;4157;48.074;9.952;2022-10-04T03:59:46;8.75;;;5.18;;
8232;SDS011;4157;48.074;9.952;2022-10-04T04:02:15;9.35;;;5.60;;
8232;SDS011;4157;48.074;9.952;2022-10-04T04:04:46;9.75;;;5.15;;
8232;SDS011;4157;48.074;9.952;2022-10-04T04:07:20;10.63;;;5.20;;
8232;SDS011;4157;48.074;9.952;2022-10-04T04:09:51;12.55;;;5.95;;
8232;SDS011;4157;48.074;9.952;2022-10-04T04:12:20;8.27;;;5.10;;
8232;SDS011;4157;48.074;9.952;2022-10-04T04:14:50;7.15;;;5.18;;
8232;SDS011;4157;48.074;9.952;2022-10-04T04:17:29;8.55;;;5.07;;
8232;SDS011;4157;48.074;9.952;2022-10-04T04:19:59;10.60;;;6.28;;
8232;SDS011;4157;48.074;9.952;2022-10-04T04:22:29;8.48;;;5.32;;
8232;SDS011;4157;48.074;9.952;2022-10-04T04:24:58;8.23;;;5.47;;
8232;SDS011;4157;48.074;9.952;2022-10-04T04:27:26;10.00;;;5.18;;
8232;SDS011;4157;48.074;9.952;2022-10-04T04:29:56;8.43;;;5.13;;
8232;SDS011;4157;48.074;9.952;2022-10-04T04:32:29;9.73;;;4.70;;
8232;SDS011;4157;48.074;9.952;2022-10-04T04:34:58;7.93;;;5.35;;
8232;SDS011;4157;48.074;9.952;2022-10-04T04:37:32;7.45;;;5.03;;
8232;SDS011;4157;48.074;9.952;2022-10-04T04:40:10;8.32;;;5.03;;
8232;SDS011;4157;48.074;9.952;2022-10-04T04:42:38;8.75;;;4.70;;
8232;SDS011;4157;48.074;9.952;2022-10-04T04:45:14;6.57;;;4.10;;
8232;SDS011;4157;48.074;9.952;2022-10-04T04:47:44;8.50;;;4.32;;
8232;SDS011;4157;48.074;9.952;2022-10-04T04:50:13;6.20;;;4.20;;
8232;SDS011;4157;48.074;9.952;2022-10-04T04:52:43;8.45;;;4.85;;
8232;SDS011;4157;48.074;9.952;2022-10-04T04:55:15;6.70;;;4.43;;
8232;SDS011;4157;48.074;9.952;2022-10-04T04:57:43;6.70;;;4.88;;
8232;SDS011;4157;48.074;9.952;2022-10-04T05:00:15;8.07;;;4.35;;
8232;SDS011;4157;48.074;9.952;2022-10-04T05:02:50;8.80;;;5.55;;
8232;SDS011;4157;48.074;9.952;2022-10-04T05:05:20;9.80;;;5.63;;
8232;SDS011;4157;48.074;9.952;2022-10-04T05:08:01;10.38;;;7.32;;
8232;SDS011;4157;48.074;9.952;2022-10-04T05:10:30;14.32;;;7.43;;
8232;SDS011;4157;48.074;9.952;2022-10-04T05:12:58;9.05;;;6.20;;
8232;SDS011;4157;48.074;9.952;2022-10-04T05:15:26;9.90;;;6.45;;
8232;SDS011;4157;48.074;9.952;2022-10-04T05:17:57;9.38;;;5.63;;
8232;SDS011;4157;48.074;9.952;2022-10-04T05:20:25;8.25;;;5.75;;
8232;SDS011;4157;48.074;9.952;2022-10-04T05:22:54;8.00;;;4.97;;
8232;SDS011;4157;48.074;9.952;2022-10-04T05:25:25;8.55;;;5.20;;
8232;SDS011;4157;48.074;9.952;2022-10-04T05:27:54;8.05;;;5.20;;
8232;SDS011;4157;48.074;9.952;2022-10-04T05:30:26;11.00;;;5.95;;
8232;SDS011;4157;48.074;9.952;2022-10-04T05:32:56;10.70;;;6.03;;
8232;SDS011;4157;48.074;9.952;2022-10-04T05:35:26;6.55;;;3.72;;
8232;SDS011;4157;48.074;9.952;2022-10-04T05:37:58;6.45;;;3.40;;
8232;SDS011;4157;48.074;9.952;2022-10-04T05:40:32;5.93;;;3.83;;
8232;SDS011;4157;48.074;9.952;2022-10-04T05:43:17;5.40;;;3.55;;
8232;SDS011;4157;48.074;9.952;2022-10-04T05:45:47;5.43;;;3.47;;
8232;SDS011;4157;48.074;9.952;2022-10-04T05:48:16;4.85;;;3.13;;
8232;SDS011;4157;48.074;9.952;2022-10-04T05:50:44;5.75;;;3.38;;
8232;SDS011;4157;48.074;9.952;2022-10-04T05:53:19;5.45;;;3.53;;
8232;SDS011;4157;48.074;9.952;2022-10-04T05:55:51;5.55;;;3.30;;
8232;SDS011;4157;48.074;9.952;2022-10-04T05:58:24;6.65;;;3.80;;
8232;SDS011;4157;48.074;9.952;2022-10-04T06:01:01;6.70;;;3.72;;
8232;SDS011;4157;48.074;9.952;2022-10-04T06:03:35;6.28;;;4.88;;
8232;SDS011;4157;48.074;9.952;2022-10-04T06:06:08;8.23;;;3.97;;
8232;SDS011;4157;48.074;9.952;2022-10-04T06:08:44;7.18;;;4.25;;
8232;SDS011;4157;48.074;9.952;2022-10-04T06:11:22;9.52;;;4.32;;
8232;SDS011;4157;48.074;9.952;2022-10-04T06:16:40;6.40;;;4.30;;
8232;SDS011;4157;48.074;9.952;2022-10-04T06:19:23;8.93;;;4.33;;
8232;SDS011;4157;48.074;9.952;2022-10-04T06:22:00;6.45;;;4.30;;
8232;SDS011;4157;48.074;9.952;2022-10-04T06:24:34;8.85;;;4.30;;
8232;SDS011;4157;48.074;9.952;2022-10-04T06:27:03;8.35;;;4.15;;
8232;SDS011;4157;48.074;9.952;2022-10-04T06:29:34;7.57;;;4.28;;
8232;SDS011;4157;48.074;9.952;2022-10-04T06:32:26;8.23;;;4.47;;
8232;SDS011;4157;48.074;9.952;2022-10-04T06:35:05;6.82;;;4.30;;
8232;SDS011;4157;48.074;9.952;2022-10-04T06:37:46;10.75;;;4.97;;
8232;SDS011;4157;48.074;9.952;2022-10-04T06:40:23;8.85;;;4.68;;
8232;SDS011;4157;48.074;9.952;2022-10-04T06:42:58;6.97;;;4.05;;
8232;SDS011;4157;48.074;9.952;2022-10-04T06:45:33;9.88;;;5.55;;
8232;SDS011;4157;48.074;9.952;2022-10-04T06:50:32;8.70;;;5.03;;
8232;SDS011;4157;48.074;9.952;2022-10-04T06:53:04;13.10;;;5.68;;
8232;SDS011;4157;48.074;9.952;2022-10-04T06:55:45;12.70;;;5.35;;
8232;SDS011;4157;48.074;9.952;2022-10-04T07:01:14;12.38;;;8.23;;
8232;SDS011;4157;48.074;9.952;2022-10-04T07:03:45;10.00;;;5.57;;
8232;SDS011;4157;48.074;9.952;2022-10-04T07:06:14;10.70;;;6.22;;
8232;SDS011;4157;48.074;9.952;2022-10-04T07:08:46;9.07;;;6.05;;
8232;SDS011;4157;48.074;9.952;2022-10-04T07:11:16;11.13;;;5.45;;
8232;SDS011;4157;48.074;9.952;2022-10-04T07:13:47;8.23;;;5.18;;
8232;SDS011;4157;48.074;9.952;2022-10-04T07:16:28;7.13;;;5.30;;
8232;SDS011;4157;48.074;9.952;2022-10-04T07:18:59;8.43;;;5.50;;
8232;SDS011;4157;48.074;9.952;2022-10-04T07:21:33;7.13;;;5.40;;
8232;SDS011;4157;48.074;9.952;2022-10-04T07:24:02;8.00;;;4.70;;
8232;SDS011;4157;48.074;9.952;2022-10-04T07:26:36;7.57;;;5.40;;
8232;SDS011;4157;48.074;9.952;2022-10-04T07:29:05;9.17;;;5.67;;
8232;SDS011;4157;48.074;9.952;2022-10-04T07:31:48;6.60;;;5.28;;
8232;SDS011;4157;48.074;9.952;2022-10-04T07:34:20;7.40;;;5.32;;
8232;SDS011;4157;48.074;9.952;2022-10-04T07:36:49;9.27;;;5.53;;
8232;SDS011;4157;48.074;9.952;2022-10-04T07:39:20;9.27;;;5.85;;
8232;SDS011;4157;48.074;9.952;2022-10-04T07:41:51;8.63;;;5.78;;
8232;SDS011;4157;48.074;9.952;2022-10-04T07:44:29;9.02;;;6.13;;
8232;SDS011;4157;48.074;9.952;2022-10-04T07:47:00;8.40;;;5.50;;
8232;SDS011;4157;48.074;9.952;2022-10-04T07:49:34;8.30;;;5.93;;
8232;SDS011;4157;48.074;9.952;2022-10-04T07:52:13;11.82;;;6.30;;
8232;SDS011;4157;48.074;9.952;2022-10-04T07:54:44;9.60;;;6.15;;
8232;SDS011;4157;48.074;9.952;2022-10-04T07:57:16;9.65;;;6.85;;
8232;SDS011;4157;48.074;9.952;2022-10-04T07:59:47;8.98;;;6.55;;
8232;SDS011;4157;48.074;9.952;2022-10-04T08:02:19;9.75;;;6.70;;
8232;SDS011;4157;48.074;9.952;2022-10-04T08:04:51;9.27;;;7.63;;
8232;SDS011;4157;48.074;9.952;2022-10-04T08:07:23;10.27;;;6.90;;
8232;SDS011;4157;48.074;9.952;2022-10-04T08:09:56;9.48;;;6.18;;
8232;SDS011;4157;48.074;9.952;2022-10-04T08:12:29;8.48;;;5.82;;
8232;SDS011;4157;48.074;9.952;2022-10-04T08:15:07;10.25;;;6.38;;
8232;SDS011;4157;48.074;9.952;2022-10-04T08:17:45;8.80;;;6.00;;
8232;SDS011;4157;48.074;9.952;2022-10-04T08:20:25;8.38;;;5.75;;
8232;SDS011;4157;48.074;9.952;2022-10-04T08:23:05;9.55;;;5.75;;
8232;SDS011;4157;48.074;9.952;2022-10-04T08:25:37;8.25;;;5.25;;
8232;SDS011;4157;48.074;9.952;2022-10-04T08:28:10;9.95;;;5.10;;
8232;SDS011;4157;48.074;9.952;2022-10-04T08:31:04;7.13;;;5.22;;
8232;SDS011;4157;48.074;9.952;2022-10-04T08:33:42;7.35;;;5.05;;
8232;SDS011;4157;48.074;9.952;2022-10-04T08:36:14;11.07;;;5.82;;
8232;SDS011;4157;48.074;9.952;2022-10-04T08:38:45;9.10;;;5.45;;
8232;SDS011;4157;48.074;9.952;2022-10-04T08:46:53;8.65;;;5.78;;
8232;SDS011;4157;48.074;9.952;2022-10-04T08:49:38;7.95;;;6.50;;
8232;SDS011;4157;48.074;9.952;2022-10-04T08:55:02;10.02;;;7.28;;
8232;SDS011;4157;48.074;9.952;2022-10-04T08:57:40;8.73;;;6.50;;
8232;SDS011;4157;48.074;9.952;2022-10-04T09:00:15;12.13;;;7.45;;
8232;SDS011;4157;48.074;9.952;2022-10-04T09:03:02;8.65;;;6.95;;
8232;SDS011;4157;48.074;9.952;2022-10-04T09:06:04;10.60;;;6.75;;
8232;SDS011;4157;48.074;9.952;2022-10-04T09:11:26;9.10;;;6.50;;
8232;SDS011;4157;48.074;9.952;2022-10-04T09:14:08;8.85;;;6.00;;
8232;SDS011;4157;48.074;9.952;2022-10-04T09:16:43;10.57;;;6.13;;
8232;SDS011;4157;48.074;9.952;2022-10-04T09:22:07;7.45;;;5.40;;
8232;SDS011;4157;48.074;9.952;2022-10-04T09:24:38;8.35;;;5.25;;
8232;SDS011;4157;48.074;9.952;2022-10-04T09:27:17;7.60;;;5.75;;
8232;SDS011;4157;48.074;9.952;2022-10-04T09:29:54;7.75;;;5.72;;
8232;SDS011;4157;48.074;9.952;2022-10-04T09:38:21;7.68;;;5.43;;
8232;SDS011;4157;48.074;9.952;2022-10-04T09:40:56;7.63;;;4.85;;
8232;SDS011;4157;48.074;9.952;2022-10-04T09:43:34;6.57;;;5.32;;
8232;SDS011;4157;48.074;9.952;2022-10-04T09:46:16;6.43;;;4.95;;
8232;SDS011;4157;48.074;9.952;2022-10-04T09:48:49;8.05;;;4.65;;
8232;SDS011;4157;48.074;9.952;2022-10-04T09:51:23;10.05;;;5.13;;
8232;SDS011;4157;48.074;9.952;2022-10-04T09:54:10;6.32;;;4.90;;
8232;SDS011;4157;48.074;9.952;2022-10-04T10:02:21;5.93;;;4.93;;
8232;SDS011;4157;48.074;9.952;2022-10-04T10:05:00;7.45;;;5.03;;
8232;SDS011;4157;48.074;9.952;2022-10-04T10:07:36;6.47;;;4.25;;
8232;SDS011;4157;48.074;9.952;2022-10-04T10:10:13;6.85;;;4.32;;
8232;SDS011;4157;48.074;9.952;2022-10-04T10:13:15;7.60;;;3.92;;
8232;SDS011;4157;48.074;9.952;2022-10-04T10:16:10;6.45;;;3.95;;
8232;SDS011;4157;48.074;9.952;2022-10-04T10:18:43;6.88;;;3.60;;
8232;SDS011;4157;48.074;9.952;2022-10-04T10:21:16;5.53;;;3.25;;
8232;SDS011;4157;48.074;9.952;2022-10-04T10:23:52;5.13;;;3.33;;
8232;SDS011;4157;48.074;9.952;2022-10-04T10:26:30;5.75;;;3.70;;
8232;SDS011;4157;48.074;9.952;2022-10-04T10:29:07;6.20;;;3.42;;
8232;SDS011;4157;48.074;9.952;2022-10-04T10:31:45;6.05;;;3.70;;
8232;SDS011;4157;48.074;9.952;2022-10-04T10:34:35;6.57;;;4.00;;
8232;SDS011;4157;48.074;9.952;2022-10-04T10:37:08;7.10;;;3.85;;
8232;SDS011;4157;48.074;9.952;2022-10-04T10:42:40;6.18;;;3.78;;
8232;SDS011;4157;48.074;9.952;2022-10-04T10:45:17;5.75;;;3.75;;
8232;SDS011;4157;48.074;9.952;2022-10-04T10:47:51;6.10;;;3.60;;
8232;SDS011;4157;48.074;9.952;2022-10-04T10:53:27;6.93;;;3.75;;
8232;SDS011;4157;48.074;9.952;2022-10-04T11:01:39;5.50;;;3.40;;
8232;SDS011;4157;48.074;9.952;2022-10-04T11:04:29;10.07;;;3.50;;
8232;SDS011;4157;48.074;9.952;2022-10-04T11:09:50;6.18;;;3.70;;
8232;SDS011;4157;48.074;9.952;2022-10-04T11:18:11;5.68;;;3.30;;
8232;SDS011;4157;48.074;9.952;2022-10-04T11:21:01;7.72;;;3.63;;
8232;SDS011;4157;48.074;9.952;2022-10-04T11:23:45;8.50;;;4.20;;
8232;SDS011;4157;48.074;9.952;2022-10-04T11:34:58;5.32;;;3.60;;
8232;SDS011;4157;48.074;9.952;2022-10-04T11:37:35;6.53;;;3.90;;
8232;SDS011;4157;48.074;9.952;2022-10-04T11:40:22;9.35;;;3.55;;
8232;SDS011;4157;48.074;9.952;2022-10-04T11:42:59;6.93;;;3.70;;
8232;SDS011;4157;48.074;9.952;2022-10-04T11:45:51;5.97;;;3.40;;
8232;SDS011;4157;48.074;9.952;2022-10-04T11:48:22;5.70;;;3.70;;
8232;SDS011;4157;48.074;9.952;2022-10-04T11:51:01;5.88;;;3.38;;
8232;SDS011;4157;48.074;9.952;2022-10-04T11:53:45;8.15;;;3.15;;
8232;SDS011;4157;48.074;9.952;2022-10-04T11:56:19;4.80;;;3.22;;
8232;SDS011;4157;48.074;9.952;2022-10-04T11:58:53;6.70;;;3.70;;
8232;SDS011;4157;48.074;9.952;2022-10-04T12:01:32;6.63;;;3.50;;
8232;SDS011;4157;48.074;9.952;2022-10-04T12:06:58;6.85;;;3.30;;
8232;SDS011;4157;48.074;9.952;2022-10-04T12:09:30;5.85;;;3.03;;
8232;SDS011;4157;48.074;9.952;2022-10-04T12:12:21;4.70;;;3.10;;
8232;SDS011;4157;48.074;9.952;2022-10-04T12:15:11;6.18;;;3.13;;
8232;SDS011;4157;48.074;9.952;2022-10-04T12:17:48;5.18;;;3.25;;
8232;SDS011;4157;48.074;9.952;2022-10-04T12:20:50;6.80;;;3.50;;
8232;SDS011;4157;48.074;9.952;2022-10-04T12:26:13;9.10;;;3.90;;
8232;SDS011;4157;48.074;9.952;2022-10-04T12:31:21;5.28;;;3.50;;
8232;SDS011;4157;48.074;9.952;2022-10-04T12:33:52;10.68;;;3.55;;
8232;SDS011;4157;48.074;9.952;2022-10-04T12:36:28;4.50;;;2.92;;
8232;SDS011;4157;48.074;9.952;2022-10-04T12:41:47;5.05;;;3.33;;
8232;SDS011;4157;48.074;9.952;2022-10-04T12:44:21;6.15;;;3.55;;
8232;SDS011;4157;48.074;9.952;2022-10-04T12:46:53;5.17;;;3.03;;
8232;SDS011;4157;48.074;9.952;2022-10-04T12:49:26;5.78;;;3.60;;
8232;SDS011;4157;48.074;9.952;2022-10-04T12:51:57;4.85;;;3.00;;
8232;SDS011;4157;48.074;9.952;2022-10-04T12:54:31;4.68;;;3.00;;
8232;SDS011;4157;48.074;9.952;2022-10-04T12:57:03;5.00;;;3.38;;
8232;SDS011;4157;48.074;9.952;2022-10-04T13:02:03;4.82;;;2.90;;
8232;SDS011;4157;48.074;9.952;2022-10-04T13:04:33;5.68;;;3.20;;
8232;SDS011;4157;48.074;9.952;2022-10-04T13:09:54;5.47;;;2.70;;
8232;SDS011;4157;48.074;9.952;2022-10-04T13:12:29;7.22;;;2.60;;
8232;SDS011;4157;48.074;9.952;2022-10-04T13:15:07;5.10;;;2.72;;
8232;SDS011;4157;48.074;9.952;2022-10-04T13:17:42;5.65;;;2.17;;
8232;SDS011;4157;48.074;9.952;2022-10-04T13:22:55;3.83;;;2.47;;
8232;SDS011;4157;48.074;9.952;2022-10-04T13:25:30;4.90;;;1.98;;
8232;SDS011;4157;48.074;9.952;2022-10-04T13:28:04;3.72;;;2.08;;
8232;SDS011;4157;48.074;9.952;2022-10-04T13:30:35;5.32;;;2.33;;
8232;SDS011;4157;48.074;9.952;2022-10-04T13:33:10;5.20;;;2.30;;
8232;SDS011;4157;48.074;9.952;2022-10-04T13:35:40;3.80;;;2.08;;
8232;SDS011;4157;48.074;9.952;2022-10-04T13:38:21;6.65;;;2.22;;
8232;SDS011;4157;48.074;9.952;2022-10-04T13:40:59;2.95;;;1.63;;
8232;SDS011;4157;48.074;9.952;2022-10-04T13:43:37;3.45;;;1.42;;
8232;SDS011;4157;48.074;9.952;2022-10-04T13:46:14;3.20;;;1.50;;
8232;SDS011;4157;48.074;9.952;2022-10-04T13:48:46;5.28;;;1.70;;
8232;SDS011;4157;48.074;9.952;2022-10-04T13:51:25;3.95;;;1.60;;
8232;SDS011;4157;48.074;9.952;2022-10-04T13:53:55;4.78;;;2.10;;
8232;SDS011;4157;48.074;9.952;2022-10-04T13:56:52;3.60;;;1.52;;
8232;SDS011;4157;48.074;9.952;2022-10-04T13:59:28;3.22;;;1.23;;
8232;SDS011;4157;48.074;9.952;2022-10-04T14:04:55;3.03;;;1.40;;
8232;SDS011;4157;48.074;9.952;2022-10-04T14:07:36;3.75;;;1.40;;
8232;SDS011;4157;48.074;9.952;2022-10-04T14:10:22;3.25;;;1.50;;
8232;SDS011;4157;48.074;9.952;2022-10-04T14:13:09;4.85;;;1.60;;
8232;SDS011;4157;48.074;9.952;2022-10-04T14:15:49;2.30;;;1.20;;
8232;SDS011;4157;48.074;9.952;2022-10-04T14:18:32;3.70;;;1.20;;
8232;SDS011;4157;48.074;9.952;2022-10-04T14:21:18;4.22;;;1.30;;
8232;SDS011;4157;48.074;9.952;2022-10-04T14:32:32;3.30;;;1.40;;
8232;SDS011;4157;48.074;9.952;2022-10-04T14:35:03;2.53;;;1.25;;
8232;SDS011;4157;48.074;9.952;2022-10-04T14:37:37;3.03;;;1.20;;
8232;SDS011;4157;48.074;9.952;2022-10-04T14:40:19;4.00;;;1.30;;
8232;SDS011;4157;48.074;9.952;2022-10-04T14:43:03;2.47;;;1.17;;
8232;SDS011;4157;48.074;9.952;2022-10-04T14:45:40;3.22;;;1.20;;
8232;SDS011;4157;48.074;9.952;2022-10-04T14:48:37;2.28;;;0.90;;
8232;SDS011;4157;48.074;9.952;2022-10-04T14:51:11;3.05;;;1.10;;
8232;SDS011;4157;48.074;9.952;2022-10-04T14:53:41;1.90;;;1.10;;
8232;SDS011;4157;48.074;9.952;2022-10-04T14:59:07;3.58;;;1.10;;
8232;SDS011;4157;48.074;9.952;2022-10-04T15:01:42;1.63;;;0.77;;
8232;SDS011;4157;48.074;9.952;2022-10-04T15:04:18;2.53;;;0.93;;
8232;SDS011;4157;48.074;9.952;2022-10-04T15:06:50;2.05;;;1.00;;
8232;SDS011;4157;48.074;9.952;2022-10-04T15:09:28;2.08;;;1.25;;
8232;SDS011;4157;48.074;9.952;2022-10-04T15:11:58;2.50;;;1.05;;
8232;SDS011;4157;48.074;9.952;2022-10-04T15:14:32;2.58;;;1.08;;
8232;SDS011;4157;48.074;9.952;2022-10-04T15:17:04;2.10;;;1.00;;
8232;SDS011;4157;48.074;9.952;2022-10-04T15:22:21;1.55;;;0.98;;
8232;SDS011;4157;48.074;9.952;2022-10-04T15:24:51;3.53;;;1.33;;
8232;SDS011;4157;48.074;9.952;2022-10-04T15:35:46;2.78;;;1.40;;
8232;SDS011;4157;48.074;9.952;2022-10-04T15:38:19;3.70;;;1.40;;
8232;SDS011;4157;48.074;9.952;2022-10-04T15:40:53;3.85;;;1.63;;
8232;SDS011;4157;48.074;9.952;2022-10-04T15:43:25;6.10;;;1.60;;
8232;SDS011;4157;48.074;9.952;2022-10-04T15:45:57;3.50;;;1.95;;
8232;SDS011;4157;48.074;9.952;2022-10-04T15:48:27;2.88;;;1.65;;
8232;SDS011;4157;48.074;9.952;2022-10-04T15:51:02;6.28;;;2.22;;
8232;SDS011;4157;48.074;9.952;2022-10-04T15:53:40;6.03;;;2.17;;
8232;SDS011;4157;48.074;9.952;2022-10-04T15:56:11;4.10;;;1.88;;
8232;SDS011;4157;48.074;9.952;2022-10-04T15:59:02;4.28;;;1.92;;
8232;SDS011;4157;48.074;9.952;2022-10-04T16:01:39;4.60;;;2.00;;
8232;SDS011;4157;48.074;9.952;2022-10-04T16:04:15;4.43;;;2.10;;
8232;SDS011;4157;48.074;9.952;2022-10-04T16:09:19;4.00;;;1.98;;
8232;SDS011;4157;48.074;9.952;2022-10-04T16:11:50;3.85;;;1.70;;
8232;SDS011;4157;48.074;9.952;2022-10-04T16:14:26;4.20;;;1.83;;
8232;SDS011;4157;48.074;9.952;2022-10-04T16:22:25;4.55;;;2.20;;
8232;SDS011;4157;48.074;9.952;2022-10-04T16:24:55;5.18;;;2.33;;
8232;SDS011;4157;48.074;9.952;2022-10-04T16:27:36;5.45;;;2.53;;
8232;SDS011;4157;48.074;9.952;2022-10-04T16:30:10;5.55;;;2.88;;
8232;SDS011;4157;48.074;9.952;2022-10-04T16:32:44;6.90;;;3.72;;
8232;SDS011;4157;48.074;9.952;2022-10-04T16:35:22;7.47;;;4.35;;
8232;SDS011;4157;48.074;9.952;2022-10-04T16:37:53;7.78;;;3.88;;
8232;SDS011;4157;48.074;9.952;2022-10-04T16:40:26;8.00;;;4.30;;
8232;SDS011;4157;48.074;9.952;2022-10-04T16:42:57;6.15;;;3.78;;
8232;SDS011;4157;48.074;9.952;2022-10-04T16:45:31;6.05;;;3.30;;
8232;SDS011;4157;48.074;9.952;2022-10-04T16:48:03;5.50;;;3.30;;
8232;SDS011;4157;48.074;9.952;2022-10-04T16:50:51;4.18;;;2.22;;
8232;SDS011;4157;48.074;9.952;2022-10-04T16:53:22;4.80;;;2.55;;
8232;SDS011;4157;48.074;9.952;2022-10-04T16:55:58;5.53;;;3.38;;
8232;SDS011;4157;48.074;9.952;2022-10-04T17:04:15;5.90;;;3.20;;
8232;SDS011;4157;48.074;9.952;2022-10-04T17:06:46;8.63;;;3.15;;
8232;SDS011;4157;48.074;9.952;2022-10-04T17:09:16;5.97;;;3.53;;
8232;SDS011;4157;48.074;9.952;2022-10-04T17:11:51;4.75;;;3.00;;
8232;SDS011;4157;48.074;9.952;2022-10-04T17:14:31;7.60;;;3.13;;
8232;SDS011;4157;48.074;9.952;2022-10-04T17:17:03;6.32;;;2.97;;
8232;SDS011;4157;48.074;9.952;2022-10-04T17:19:37;8.57;;;3.22;;
8232;SDS011;4157;48.074;9.952;2022-10-04T17:22:14;5.70;;;3.15;;
8232;SDS011;4157;48.074;9.952;2022-10-04T17:24:49;5.85;;;3.00;;
8232;SDS011;4157;48.074;9.952;2022-10-04T17:27:30;6.03;;;3.40;;
8232;SDS011;4157;48.074;9.952;2022-10-04T17:30:11;7.57;;;4.38;;
8232;SDS011;4157;48.074;9.952;2022-10-04T17:32:43;7.43;;;4.32;;
8232;SDS011;4157;48.074;9.952;2022-10-04T17:35:37;8.65;;;5.28;;
8232;SDS011;4157;48.074;9.952;2022-10-04T17:38:06;8.27;;;5.68;;
8232;SDS011;4157;48.074;9.952;2022-10-04T17:40:36;8.18;;;5.45;;
8232;SDS011;4157;48.074;9.952;2022-10-04T17:43:14;6.93;;;4.88;;
8232;SDS011;4157;48.074;9.952;2022-10-04T17:45:51;8.40;;;5.30;;
8232;SDS011;4157;48.074;9.952;2022-10-04T17:48:23;7.90;;;4.55;;
8232;SDS011;4157;48.074;9.952;2022-10-04T17:51:11;6.78;;;4.07;;
8232;SDS011;4157;48.074;9.952;2022-10-04T17:53:59;5.40;;;3.88;;
8232;SDS011;4157;48.074;9.952;2022-10-04T17:56:47;7.93;;;3.50;;
8232;SDS011;4157;48.074;9.952;2022-10-04T17:59:19;6.68;;;3.70;;
8232;SDS011;4157;48.074;9.952;2022-10-04T18:01:50;6.63;;;3.28;;
8232;SDS011;4157;48.074;9.952;2022-10-04T18:04:20;5.93;;;2.92;;
8232;SDS011;4157;48.074;9.952;2022-10-04T18:06:52;7.72;;;3.10;;
8232;SDS011;4157;48.074;9.952;2022-10-04T18:09:25;6.90;;;2.95;;